sensor_id;sensor_type;location;lat;lon;timestamp;P1;durP1;ratioP1;P2;durP2;ratioP2
37455;SDS011;23316;50.718;7.328;2023-04-06T00:00:35;9.13;;;5.20;;
37455;SDS011;23316;50.718;7.328;2023-04-06T00:03:03;9.77;;;5.28;;
37455;SDS011;23316;50.718;7.328;2023-04-06T00:05:30;8.38;;;4.72;;
37455;SDS011;23316;50.718;7.328;2023-04-06T00:07:59;10.07;;;5.22;;
37455;SDS011;23316;50.718;7.328;2023-04-06T00:10:26;8.63;;;4.95;;
37455;SDS011;23316;50.718;7.328;2023-04-06T00:12:54;8.40;;;5.38;;
37455;SDS011;23316;50.718;7.328;2023-04-06T00:15:22;9.30;;;4.65;;
37455;SDS011;23316;50.718;7.328;2023-04-06T00:17:50;9.80;;;5.97;;
37455;SDS011;23316;50.718;7.328;2023-04-06T00:20:17;8.55;;;4.95;;
37455;SDS011;23316;50.718;7.328;2023-04-06T00:22:44;8.57;;;5.43;;
37455;SDS011;23316;50.718;7.328;2023-04-06T00:25:13;8.23;;;5.00;;
37455;SDS011;23316;50.718;7.328;2023-04-06T00:27:42;8.38;;;4.95;;
37455;SDS011;23316;50.718;7.328;2023-04-06T00:30:09;8.75;;;5.10;;
37455;SDS011;23316;50.718;7.328;2023-04-06T00:32:37;9.40;;;5.22;;
37455;SDS011;23316;50.718;7.328;2023-04-06T00:35:05;8.88;;;4.88;;
37455;SDS011;23316;50.718;7.328;2023-04-06T00:37:32;8.57;;;4.63;;
37455;SDS011;23316;50.718;7.328;2023-04-06T00:40:00;13.40;;;5.28;;
37455;SDS011;23316;50.718;7.328;2023-04-06T00:42:29;9.40;;;5.32;;
37455;SDS011;23316;50.718;7.328;2023-04-06T00:44:57;6.93;;;4.82;;
37455;SDS011;23316;50.718;7.328;2023-04-06T00:47:26;9.55;;;5.20;;
37455;SDS011;23316;50.718;7.328;2023-04-06T00:49:54;10.50;;;5.03;;
37455;SDS011;23316;50.718;7.328;2023-04-06T00:52:21;8.15;;;5.20;;
37455;SDS011;23316;50.718;7.328;2023-04-06T00:54:49;9.60;;;5.20;;
37455;SDS011;23316;50.718;7.328;2023-04-06T00:57:16;10.50;;;5.30;;
37455;SDS011;23316;50.718;7.328;2023-04-06T00:59:46;7.25;;;5.10;;
37455;SDS011;23316;50.718;7.328;2023-04-06T01:02:13;9.07;;;4.95;;
37455;SDS011;23316;50.718;7.328;2023-04-06T01:04:41;8.88;;;5.43;;
37455;SDS011;23316;50.718;7.328;2023-04-06T01:07:09;10.07;;;4.90;;
37455;SDS011;23316;50.718;7.328;2023-04-06T01:09:36;8.52;;;5.28;;
37455;SDS011;23316;50.718;7.328;2023-04-06T01:12:06;10.63;;;5.55;;
37455;SDS011;23316;50.718;7.328;2023-04-06T01:14:33;9.02;;;4.93;;
37455;SDS011;23316;50.718;7.328;2023-04-06T01:17:02;6.60;;;4.63;;
37455;SDS011;23316;50.718;7.328;2023-04-06T01:19:30;9.15;;;4.80;;
37455;SDS011;23316;50.718;7.328;2023-04-06T01:21:57;9.98;;;6.00;;
37455;SDS011;23316;50.718;7.328;2023-04-06T01:24:26;7.55;;;5.20;;
37455;SDS011;23316;50.718;7.328;2023-04-06T01:26:53;10.00;;;5.05;;
37455;SDS011;23316;50.718;7.328;2023-04-06T01:29:22;9.02;;;4.72;;
37455;SDS011;23316;50.718;7.328;2023-04-06T01:31:49;12.05;;;5.75;;
37455;SDS011;23316;50.718;7.328;2023-04-06T01:34:16;9.77;;;4.95;;
37455;SDS011;23316;50.718;7.328;2023-04-06T01:36:43;8.30;;;4.47;;
37455;SDS011;23316;50.718;7.328;2023-04-06T01:39:11;9.90;;;5.57;;
37455;SDS011;23316;50.718;7.328;2023-04-06T01:41:39;11.50;;;6.10;;
37455;SDS011;23316;50.718;7.328;2023-04-06T01:44:06;10.20;;;4.82;;
37455;SDS011;23316;50.718;7.328;2023-04-06T01:46:34;9.20;;;6.03;;
37455;SDS011;23316;50.718;7.328;2023-04-06T01:49:01;9.00;;;5.10;;
37455;SDS011;23316;50.718;7.328;2023-04-06T01:51:28;13.32;;;5.45;;
37455;SDS011;23316;50.718;7.328;2023-04-06T01:53:56;9.68;;;5.95;;
37455;SDS011;23316;50.718;7.328;2023-04-06T01:56:23;9.05;;;5.18;;
37455;SDS011;23316;50.718;7.328;2023-04-06T01:58:53;8.82;;;5.47;;
37455;SDS011;23316;50.718;7.328;2023-04-06T02:01:21;10.82;;;5.47;;
37455;SDS011;23316;50.718;7.328;2023-04-06T02:03:48;10.05;;;6.25;;
37455;SDS011;23316;50.718;7.328;2023-04-06T02:06:16;12.27;;;6.30;;
37455;SDS011;23316;50.718;7.328;2023-04-06T02:08:43;11.05;;;5.68;;
37455;SDS011;23316;50.718;7.328;2023-04-06T02:11:10;9.18;;;5.35;;
37455;SDS011;23316;50.718;7.328;2023-04-06T02:13:37;16.80;;;6.35;;
37455;SDS011;23316;50.718;7.328;2023-04-06T02:16:06;11.68;;;5.70;;
37455;SDS011;23316;50.718;7.328;2023-04-06T02:18:33;9.95;;;5.57;;
37455;SDS011;23316;50.718;7.328;2023-04-06T02:21:01;10.30;;;6.63;;
37455;SDS011;23316;50.718;7.328;2023-04-06T02:23:28;10.02;;;5.32;;
37455;SDS011;23316;50.718;7.328;2023-04-06T02:25:56;8.77;;;5.30;;
37455;SDS011;23316;50.718;7.328;2023-04-06T02:28:23;10.43;;;5.93;;
37455;SDS011;23316;50.718;7.328;2023-04-06T02:30:51;10.82;;;5.57;;
37455;SDS011;23316;50.718;7.328;2023-04-06T02:33:19;11.85;;;6.00;;
37455;SDS011;23316;50.718;7.328;2023-04-06T02:35:46;9.20;;;5.53;;
37455;SDS011;23316;50.718;7.328;2023-04-06T02:38:14;8.68;;;5.32;;
37455;SDS011;23316;50.718;7.328;2023-04-06T02:40:41;11.80;;;6.50;;
37455;SDS011;23316;50.718;7.328;2023-04-06T02:43:08;9.68;;;5.82;;
37455;SDS011;23316;50.718;7.328;2023-04-06T02:45:35;9.38;;;5.80;;
37455;SDS011;23316;50.718;7.328;2023-04-06T02:48:02;11.32;;;5.70;;
37455;SDS011;23316;50.718;7.328;2023-04-06T02:50:31;8.60;;;5.30;;
37455;SDS011;23316;50.718;7.328;2023-04-06T02:52:58;9.95;;;5.97;;
37455;SDS011;23316;50.718;7.328;2023-04-06T02:55:26;8.35;;;5.30;;
37455;SDS011;23316;50.718;7.328;2023-04-06T02:57:53;11.23;;;6.05;;
37455;SDS011;23316;50.718;7.328;2023-04-06T03:00:21;9.38;;;5.30;;
37455;SDS011;23316;50.718;7.328;2023-04-06T03:02:48;9.57;;;5.45;;
37455;SDS011;23316;50.718;7.328;2023-04-06T03:05:15;13.82;;;6.00;;
37455;SDS011;23316;50.718;7.328;2023-04-06T03:07:44;10.60;;;6.07;;
37455;SDS011;23316;50.718;7.328;2023-04-06T03:10:11;9.63;;;5.57;;
37455;SDS011;23316;50.718;7.328;2023-04-06T03:12:38;8.52;;;5.50;;
37455;SDS011;23316;50.718;7.328;2023-04-06T03:15:07;12.05;;;6.75;;
37455;SDS011;23316;50.718;7.328;2023-04-06T03:17:36;11.77;;;6.60;;
37455;SDS011;23316;50.718;7.328;2023-04-06T03:20:03;8.25;;;5.50;;
37455;SDS011;23316;50.718;7.328;2023-04-06T03:22:31;9.75;;;5.53;;
37455;SDS011;23316;50.718;7.328;2023-04-06T03:25:00;12.93;;;6.57;;
37455;SDS011;23316;50.718;7.328;2023-04-06T03:27:27;9.73;;;5.82;;
37455;SDS011;23316;50.718;7.328;2023-04-06T03:29:55;12.27;;;6.55;;
37455;SDS011;23316;50.718;7.328;2023-04-06T03:32:22;11.80;;;6.68;;
37455;SDS011;23316;50.718;7.328;2023-04-06T03:34:50;9.63;;;6.05;;
37455;SDS011;23316;50.718;7.328;2023-04-06T03:37:17;10.27;;;5.80;;
37455;SDS011;23316;50.718;7.328;2023-04-06T03:39:44;11.98;;;6.10;;
37455;SDS011;23316;50.718;7.328;2023-04-06T03:42:13;11.48;;;5.85;;
37455;SDS011;23316;50.718;7.328;2023-04-06T03:44:40;9.15;;;5.70;;
37455;SDS011;23316;50.718;7.328;2023-04-06T03:47:07;13.85;;;6.15;;
37455;SDS011;23316;50.718;7.328;2023-04-06T03:49:35;10.35;;;6.22;;
37455;SDS011;23316;50.718;7.328;2023-04-06T03:52:02;11.55;;;6.18;;
37455;SDS011;23316;50.718;7.328;2023-04-06T03:54:29;14.15;;;7.70;;
37455;SDS011;23316;50.718;7.328;2023-04-06T03:56:56;12.38;;;7.13;;
37455;SDS011;23316;50.718;7.328;2023-04-06T03:59:25;11.25;;;6.53;;
37455;SDS011;23316;50.718;7.328;2023-04-06T04:01:52;10.90;;;5.88;;
37455;SDS011;23316;50.718;7.328;2023-04-06T04:04:20;11.93;;;7.07;;
37455;SDS011;23316;50.718;7.328;2023-04-06T04:06:47;9.95;;;6.10;;
37455;SDS011;23316;50.718;7.328;2023-04-06T04:09:14;12.55;;;6.63;;
37455;SDS011;23316;50.718;7.328;2023-04-06T04:11:41;10.75;;;6.43;;
37455;SDS011;23316;50.718;7.328;2023-04-06T04:14:08;9.52;;;5.93;;
37455;SDS011;23316;50.718;7.328;2023-04-06T04:16:37;13.15;;;7.00;;
37455;SDS011;23316;50.718;7.328;2023-04-06T04:19:04;10.07;;;5.97;;
37455;SDS011;23316;50.718;7.328;2023-04-06T04:21:32;11.35;;;6.63;;
37455;SDS011;23316;50.718;7.328;2023-04-06T04:23:59;12.45;;;6.53;;
37455;SDS011;23316;50.718;7.328;2023-04-06T04:26:27;11.30;;;6.65;;
37455;SDS011;23316;50.718;7.328;2023-04-06T04:28:54;11.50;;;6.50;;
37455;SDS011;23316;50.718;7.328;2023-04-06T04:31:21;12.18;;;5.90;;
37455;SDS011;23316;50.718;7.328;2023-04-06T04:33:51;11.82;;;6.43;;
37455;SDS011;23316;50.718;7.328;2023-04-06T04:36:18;10.75;;;5.95;;
37455;SDS011;23316;50.718;7.328;2023-04-06T04:38:46;11.40;;;6.35;;
37455;SDS011;23316;50.718;7.328;2023-04-06T04:41:13;11.73;;;6.30;;
37455;SDS011;23316;50.718;7.328;2023-04-06T04:43:40;10.02;;;6.40;;
37455;SDS011;23316;50.718;7.328;2023-04-06T04:46:07;10.25;;;6.10;;
37455;SDS011;23316;50.718;7.328;2023-04-06T04:48:35;13.50;;;7.07;;
37455;SDS011;23316;50.718;7.328;2023-04-06T04:51:04;14.55;;;6.93;;
37455;SDS011;23316;50.718;7.328;2023-04-06T04:53:31;10.82;;;6.22;;
37455;SDS011;23316;50.718;7.328;2023-04-06T04:55:58;15.02;;;7.22;;
37455;SDS011;23316;50.718;7.328;2023-04-06T04:58:26;9.98;;;6.13;;
37455;SDS011;23316;50.718;7.328;2023-04-06T05:00:53;12.35;;;6.43;;
37455;SDS011;23316;50.718;7.328;2023-04-06T05:03:21;12.23;;;6.43;;
37455;SDS011;23316;50.718;7.328;2023-04-06T05:05:50;18.92;;;8.35;;
37455;SDS011;23316;50.718;7.328;2023-04-06T05:08:18;21.40;;;10.85;;
37455;SDS011;23316;50.718;7.328;2023-04-06T05:10:46;17.95;;;8.95;;
37455;SDS011;23316;50.718;7.328;2023-04-06T05:13:14;13.98;;;6.75;;
37455;SDS011;23316;50.718;7.328;2023-04-06T05:15:41;12.30;;;7.13;;
37455;SDS011;23316;50.718;7.328;2023-04-06T05:18:08;12.60;;;6.00;;
37455;SDS011;23316;50.718;7.328;2023-04-06T05:20:37;10.75;;;5.90;;
37455;SDS011;23316;50.718;7.328;2023-04-06T05:23:05;17.23;;;6.63;;
37455;SDS011;23316;50.718;7.328;2023-04-06T05:25:34;10.38;;;5.60;;
37455;SDS011;23316;50.718;7.328;2023-04-06T05:28:01;10.80;;;5.88;;
37455;SDS011;23316;50.718;7.328;2023-04-06T05:30:29;10.88;;;5.88;;
37455;SDS011;23316;50.718;7.328;2023-04-06T05:32:56;13.10;;;6.97;;
37455;SDS011;23316;50.718;7.328;2023-04-06T05:35:23;26.80;;;13.13;;
37455;SDS011;23316;50.718;7.328;2023-04-06T05:37:51;15.88;;;8.23;;
37455;SDS011;23316;50.718;7.328;2023-04-06T05:40:18;13.18;;;7.38;;
37455;SDS011;23316;50.718;7.328;2023-04-06T05:42:47;11.77;;;6.18;;
37455;SDS011;23316;50.718;7.328;2023-04-06T05:45:14;14.75;;;6.72;;
37455;SDS011;23316;50.718;7.328;2023-04-06T05:47:44;11.48;;;6.38;;
37455;SDS011;23316;50.718;7.328;2023-04-06T05:50:12;10.68;;;5.70;;
37455;SDS011;23316;50.718;7.328;2023-04-06T05:52:41;10.55;;;6.57;;
37455;SDS011;23316;50.718;7.328;2023-04-06T05:55:10;10.93;;;6.05;;
37455;SDS011;23316;50.718;7.328;2023-04-06T05:57:37;14.88;;;6.53;;
37455;SDS011;23316;50.718;7.328;2023-04-06T06:00:07;8.93;;;5.50;;
37455;SDS011;23316;50.718;7.328;2023-04-06T06:02:35;14.32;;;7.10;;
37455;SDS011;23316;50.718;7.328;2023-04-06T06:05:02;14.23;;;6.70;;
37455;SDS011;23316;50.718;7.328;2023-04-06T06:07:30;13.57;;;7.10;;
37455;SDS011;23316;50.718;7.328;2023-04-06T06:09:58;13.65;;;6.38;;
37455;SDS011;23316;50.718;7.328;2023-04-06T06:12:25;14.15;;;6.30;;
37455;SDS011;23316;50.718;7.328;2023-04-06T06:14:52;9.90;;;5.82;;
37455;SDS011;23316;50.718;7.328;2023-04-06T06:17:22;12.32;;;6.18;;
37455;SDS011;23316;50.718;7.328;2023-04-06T06:19:49;13.95;;;7.30;;
37455;SDS011;23316;50.718;7.328;2023-04-06T06:22:16;12.57;;;6.15;;
37455;SDS011;23316;50.718;7.328;2023-04-06T06:24:43;11.25;;;6.38;;
37455;SDS011;23316;50.718;7.328;2023-04-06T06:27:11;10.95;;;6.00;;
37455;SDS011;23316;50.718;7.328;2023-04-06T06:29:38;11.48;;;6.70;;
37455;SDS011;23316;50.718;7.328;2023-04-06T06:32:05;12.90;;;6.65;;
37455;SDS011;23316;50.718;7.328;2023-04-06T06:34:35;11.55;;;6.57;;
37455;SDS011;23316;50.718;7.328;2023-04-06T06:37:03;11.10;;;6.65;;
37455;SDS011;23316;50.718;7.328;2023-04-06T06:39:30;17.30;;;6.72;;
37455;SDS011;23316;50.718;7.328;2023-04-06T06:41:57;13.07;;;7.40;;
37455;SDS011;23316;50.718;7.328;2023-04-06T06:44:26;12.27;;;6.97;;
37455;SDS011;23316;50.718;7.328;2023-04-06T06:46:54;13.60;;;6.18;;
37455;SDS011;23316;50.718;7.328;2023-04-06T06:49:21;18.25;;;6.78;;
37455;SDS011;23316;50.718;7.328;2023-04-06T06:51:49;9.30;;;5.40;;
37455;SDS011;23316;50.718;7.328;2023-04-06T06:54:17;10.10;;;6.30;;
37455;SDS011;23316;50.718;7.328;2023-04-06T06:56:44;12.57;;;6.85;;
37455;SDS011;23316;50.718;7.328;2023-04-06T06:59:11;11.50;;;6.65;;
37455;SDS011;23316;50.718;7.328;2023-04-06T07:01:39;12.30;;;5.82;;
37455;SDS011;23316;50.718;7.328;2023-04-06T07:04:06;13.85;;;6.47;;
37455;SDS011;23316;50.718;7.328;2023-04-06T07:06:34;13.48;;;7.20;;
37455;SDS011;23316;50.718;7.328;2023-04-06T07:09:03;12.02;;;6.25;;
37455;SDS011;23316;50.718;7.328;2023-04-06T07:11:30;10.63;;;6.63;;
37455;SDS011;23316;50.718;7.328;2023-04-06T07:13:57;14.68;;;6.97;;
37455;SDS011;23316;50.718;7.328;2023-04-06T07:16:25;13.98;;;6.93;;
37455;SDS011;23316;50.718;7.328;2023-04-06T07:18:52;14.25;;;6.70;;
37455;SDS011;23316;50.718;7.328;2023-04-06T07:21:19;15.75;;;6.95;;
37455;SDS011;23316;50.718;7.328;2023-04-06T07:23:47;10.63;;;5.95;;
37455;SDS011;23316;50.718;7.328;2023-04-06T07:26:17;11.63;;;7.03;;
37455;SDS011;23316;50.718;7.328;2023-04-06T07:28:44;12.13;;;6.35;;
37455;SDS011;23316;50.718;7.328;2023-04-06T07:31:12;13.32;;;6.63;;
37455;SDS011;23316;50.718;7.328;2023-04-06T07:33:39;12.15;;;6.75;;
37455;SDS011;23316;50.718;7.328;2023-04-06T07:36:06;14.60;;;7.13;;
37455;SDS011;23316;50.718;7.328;2023-04-06T07:38:34;11.85;;;6.55;;
37455;SDS011;23316;50.718;7.328;2023-04-06T07:41:01;13.98;;;6.63;;
37455;SDS011;23316;50.718;7.328;2023-04-06T07:43:30;14.75;;;7.30;;
37455;SDS011;23316;50.718;7.328;2023-04-06T07:45:58;13.35;;;7.38;;
37455;SDS011;23316;50.718;7.328;2023-04-06T07:48:26;17.30;;;7.45;;
37455;SDS011;23316;50.718;7.328;2023-04-06T07:51:00;13.23;;;7.70;;
37455;SDS011;23316;50.718;7.328;2023-04-06T07:53:28;18.27;;;7.05;;
37455;SDS011;23316;50.718;7.328;2023-04-06T07:55:55;18.83;;;8.30;;
37455;SDS011;23316;50.718;7.328;2023-04-06T07:58:24;14.20;;;7.38;;
37455;SDS011;23316;50.718;7.328;2023-04-06T08:00:53;16.23;;;8.00;;
37455;SDS011;23316;50.718;7.328;2023-04-06T08:03:20;14.63;;;7.25;;
37455;SDS011;23316;50.718;7.328;2023-04-06T08:05:51;16.00;;;7.57;;
37455;SDS011;23316;50.718;7.328;2023-04-06T08:08:19;13.80;;;7.18;;
37455;SDS011;23316;50.718;7.328;2023-04-06T08:10:46;16.35;;;7.78;;
37455;SDS011;23316;50.718;7.328;2023-04-06T08:13:14;14.98;;;7.40;;
37455;SDS011;23316;50.718;7.328;2023-04-06T08:15:41;13.18;;;7.47;;
37455;SDS011;23316;50.718;7.328;2023-04-06T08:18:09;14.20;;;7.35;;
37455;SDS011;23316;50.718;7.328;2023-04-06T08:20:37;10.88;;;6.78;;
37455;SDS011;23316;50.718;7.328;2023-04-06T08:23:04;10.85;;;6.32;;
37455;SDS011;23316;50.718;7.328;2023-04-06T08:25:33;13.20;;;7.10;;
37455;SDS011;23316;50.718;7.328;2023-04-06T08:28:01;21.13;;;9.00;;
37455;SDS011;23316;50.718;7.328;2023-04-06T08:30:29;13.57;;;8.27;;
37455;SDS011;23316;50.718;7.328;2023-04-06T08:32:56;13.45;;;7.47;;
37455;SDS011;23316;50.718;7.328;2023-04-06T08:35:25;13.15;;;7.82;;
37455;SDS011;23316;50.718;7.328;2023-04-06T08:37:53;16.17;;;7.60;;
37455;SDS011;23316;50.718;7.328;2023-04-06T08:40:20;13.55;;;8.00;;
37455;SDS011;23316;50.718;7.328;2023-04-06T08:42:49;15.50;;;7.78;;
37455;SDS011;23316;50.718;7.328;2023-04-06T08:45:18;18.77;;;8.38;;
37455;SDS011;23316;50.718;7.328;2023-04-06T08:47:47;14.90;;;8.23;;
37455;SDS011;23316;50.718;7.328;2023-04-06T08:50:16;16.20;;;8.32;;
37455;SDS011;23316;50.718;7.328;2023-04-06T08:52:46;15.07;;;8.02;;
37455;SDS011;23316;50.718;7.328;2023-04-06T08:55:14;16.05;;;8.70;;
37455;SDS011;23316;50.718;7.328;2023-04-06T08:57:42;14.75;;;8.20;;
37455;SDS011;23316;50.718;7.328;2023-04-06T09:00:10;17.42;;;8.27;;
37455;SDS011;23316;50.718;7.328;2023-04-06T09:02:38;15.52;;;8.63;;
37455;SDS011;23316;50.718;7.328;2023-04-06T09:05:07;15.30;;;8.20;;
37455;SDS011;23316;50.718;7.328;2023-04-06T09:07:35;20.77;;;9.68;;
37455;SDS011;23316;50.718;7.328;2023-04-06T09:10:04;21.30;;;9.52;;
37455;SDS011;23316;50.718;7.328;2023-04-06T09:12:32;21.08;;;8.68;;
37455;SDS011;23316;50.718;7.328;2023-04-06T09:15:01;20.08;;;9.45;;
37455;SDS011;23316;50.718;7.328;2023-04-06T09:17:30;17.73;;;8.35;;
37455;SDS011;23316;50.718;7.328;2023-04-06T09:19:59;21.92;;;9.35;;
37455;SDS011;23316;50.718;7.328;2023-04-06T09:22:34;16.25;;;8.27;;
37455;SDS011;23316;50.718;7.328;2023-04-06T09:25:02;22.15;;;8.68;;
37455;SDS011;23316;50.718;7.328;2023-04-06T09:27:32;20.70;;;8.98;;
37455;SDS011;23316;50.718;7.328;2023-04-06T09:30:04;20.83;;;9.68;;
37455;SDS011;23316;50.718;7.328;2023-04-06T09:32:43;27.38;;;8.60;;
37455;SDS011;23316;50.718;7.328;2023-04-06T09:35:12;18.55;;;9.05;;
37455;SDS011;23316;50.718;7.328;2023-04-06T09:37:40;19.83;;;10.02;;
37455;SDS011;23316;50.718;7.328;2023-04-06T09:40:08;15.68;;;8.90;;
37455;SDS011;23316;50.718;7.328;2023-04-06T09:42:37;15.15;;;8.48;;
37455;SDS011;23316;50.718;7.328;2023-04-06T09:45:07;17.10;;;8.80;;
37455;SDS011;23316;50.718;7.328;2023-04-06T09:47:35;16.75;;;8.88;;
37455;SDS011;23316;50.718;7.328;2023-04-06T09:50:03;19.52;;;9.77;;
37455;SDS011;23316;50.718;7.328;2023-04-06T09:52:32;17.63;;;8.73;;
37455;SDS011;23316;50.718;7.328;2023-04-06T09:55:03;19.98;;;9.15;;
37455;SDS011;23316;50.718;7.328;2023-04-06T09:57:35;21.23;;;9.95;;
37455;SDS011;23316;50.718;7.328;2023-04-06T10:00:11;18.58;;;9.45;;
37455;SDS011;23316;50.718;7.328;2023-04-06T10:02:45;17.73;;;8.80;;
37455;SDS011;23316;50.718;7.328;2023-04-06T10:05:19;19.27;;;8.95;;
37455;SDS011;23316;50.718;7.328;2023-04-06T10:07:55;18.25;;;9.00;;
37455;SDS011;23316;50.718;7.328;2023-04-06T10:10:26;18.27;;;9.48;;
37455;SDS011;23316;50.718;7.328;2023-04-06T10:12:55;19.52;;;9.20;;
37455;SDS011;23316;50.718;7.328;2023-04-06T10:15:24;18.75;;;9.82;;
37455;SDS011;23316;50.718;7.328;2023-04-06T10:17:51;22.65;;;10.32;;
37455;SDS011;23316;50.718;7.328;2023-04-06T10:20:21;23.08;;;10.65;;
37455;SDS011;23316;50.718;7.328;2023-04-06T10:22:55;20.98;;;10.45;;
37455;SDS011;23316;50.718;7.328;2023-04-06T10:25:28;20.88;;;9.40;;
37455;SDS011;23316;50.718;7.328;2023-04-06T10:28:00;25.88;;;10.88;;
37455;SDS011;23316;50.718;7.328;2023-04-06T10:30:31;25.05;;;10.60;;
37455;SDS011;23316;50.718;7.328;2023-04-06T10:33:11;20.65;;;9.75;;
37455;SDS011;23316;50.718;7.328;2023-04-06T10:35:40;19.45;;;10.43;;
37455;SDS011;23316;50.718;7.328;2023-04-06T10:38:07;23.95;;;9.93;;
37455;SDS011;23316;50.718;7.328;2023-04-06T10:40:35;20.73;;;10.13;;
37455;SDS011;23316;50.718;7.328;2023-04-06T10:43:08;22.35;;;10.93;;
37455;SDS011;23316;50.718;7.328;2023-04-06T10:45:37;20.27;;;10.27;;
37455;SDS011;23316;50.718;7.328;2023-04-06T10:48:13;24.73;;;10.77;;
37455;SDS011;23316;50.718;7.328;2023-04-06T10:50:42;21.90;;;11.05;;
37455;SDS011;23316;50.718;7.328;2023-04-06T10:53:11;23.10;;;10.90;;
37455;SDS011;23316;50.718;7.328;2023-04-06T10:55:46;21.90;;;10.43;;
37455;SDS011;23316;50.718;7.328;2023-04-06T10:58:17;19.50;;;10.48;;
37455;SDS011;23316;50.718;7.328;2023-04-06T11:00:44;18.05;;;9.80;;
37455;SDS011;23316;50.718;7.328;2023-04-06T11:03:12;18.80;;;10.20;;
37455;SDS011;23316;50.718;7.328;2023-04-06T11:05:43;20.90;;;9.50;;
37455;SDS011;23316;50.718;7.328;2023-04-06T11:08:21;19.80;;;9.48;;
37455;SDS011;23316;50.718;7.328;2023-04-06T11:10:49;22.75;;;9.73;;
37455;SDS011;23316;50.718;7.328;2023-04-06T11:13:17;20.27;;;9.75;;
37455;SDS011;23316;50.718;7.328;2023-04-06T11:15:44;23.58;;;10.57;;
37455;SDS011;23316;50.718;7.328;2023-04-06T11:18:12;21.52;;;11.10;;
37455;SDS011;23316;50.718;7.328;2023-04-06T11:20:46;20.23;;;10.40;;
37455;SDS011;23316;50.718;7.328;2023-04-06T11:23:21;18.85;;;10.35;;
37455;SDS011;23316;50.718;7.328;2023-04-06T11:25:50;25.02;;;11.90;;
37455;SDS011;23316;50.718;7.328;2023-04-06T11:28:19;26.13;;;11.43;;
37455;SDS011;23316;50.718;7.328;2023-04-06T11:30:47;19.75;;;10.45;;
37455;SDS011;23316;50.718;7.328;2023-04-06T11:33:19;21.40;;;10.75;;
37455;SDS011;23316;50.718;7.328;2023-04-06T11:35:47;20.98;;;10.13;;
37455;SDS011;23316;50.718;7.328;2023-04-06T11:38:15;19.42;;;9.95;;
37455;SDS011;23316;50.718;7.328;2023-04-06T11:40:44;18.10;;;9.93;;
37455;SDS011;23316;50.718;7.328;2023-04-06T11:43:12;18.00;;;9.50;;
37455;SDS011;23316;50.718;7.328;2023-04-06T11:45:41;15.02;;;8.98;;
37455;SDS011;23316;50.718;7.328;2023-04-06T11:48:17;17.45;;;8.60;;
37455;SDS011;23316;50.718;7.328;2023-04-06T11:50:46;19.52;;;8.77;;
37455;SDS011;23316;50.718;7.328;2023-04-06T11:53:14;16.67;;;9.40;;
37455;SDS011;23316;50.718;7.328;2023-04-06T11:55:41;15.18;;;9.02;;
37455;SDS011;23316;50.718;7.328;2023-04-06T11:58:12;18.27;;;7.97;;
37455;SDS011;23316;50.718;7.328;2023-04-06T12:00:40;16.95;;;8.25;;
37455;SDS011;23316;50.718;7.328;2023-04-06T12:03:10;15.52;;;8.13;;
37455;SDS011;23316;50.718;7.328;2023-04-06T12:05:38;13.73;;;7.97;;
37455;SDS011;23316;50.718;7.328;2023-04-06T12:08:05;13.38;;;7.75;;
37455;SDS011;23316;50.718;7.328;2023-04-06T12:10:33;16.20;;;7.90;;
37455;SDS011;23316;50.718;7.328;2023-04-06T12:13:00;16.23;;;8.50;;
37455;SDS011;23316;50.718;7.328;2023-04-06T12:15:28;16.80;;;8.27;;
37455;SDS011;23316;50.718;7.328;2023-04-06T12:17:56;14.43;;;8.20;;
37455;SDS011;23316;50.718;7.328;2023-04-06T12:20:24;16.25;;;8.52;;
37455;SDS011;23316;50.718;7.328;2023-04-06T12:22:51;17.45;;;8.98;;
37455;SDS011;23316;50.718;7.328;2023-04-06T12:25:18;14.35;;;8.02;;
37455;SDS011;23316;50.718;7.328;2023-04-06T12:27:46;19.30;;;8.70;;
37455;SDS011;23316;50.718;7.328;2023-04-06T12:30:13;13.05;;;7.97;;
37455;SDS011;23316;50.718;7.328;2023-04-06T12:32:41;15.35;;;8.85;;
37455;SDS011;23316;50.718;7.328;2023-04-06T12:35:09;14.35;;;7.45;;
37455;SDS011;23316;50.718;7.328;2023-04-06T12:37:41;13.93;;;7.40;;
37455;SDS011;23316;50.718;7.328;2023-04-06T12:40:09;12.38;;;6.38;;
37455;SDS011;23316;50.718;7.328;2023-04-06T12:42:38;10.00;;;6.05;;
37455;SDS011;23316;50.718;7.328;2023-04-06T12:45:07;14.52;;;7.72;;
37455;SDS011;23316;50.718;7.328;2023-04-06T12:47:35;14.27;;;8.25;;
37455;SDS011;23316;50.718;7.328;2023-04-06T12:50:03;12.85;;;7.10;;
37455;SDS011;23316;50.718;7.328;2023-04-06T12:52:33;15.05;;;7.20;;
37455;SDS011;23316;50.718;7.328;2023-04-06T12:55:01;15.18;;;7.63;;
37455;SDS011;23316;50.718;7.328;2023-04-06T12:57:30;15.15;;;8.20;;
37455;SDS011;23316;50.718;7.328;2023-04-06T12:59:57;15.02;;;8.20;;
37455;SDS011;23316;50.718;7.328;2023-04-06T13:02:25;21.00;;;8.95;;
37455;SDS011;23316;50.718;7.328;2023-04-06T13:04:52;17.80;;;8.65;;
37455;SDS011;23316;50.718;7.328;2023-04-06T13:07:20;18.70;;;8.95;;
37455;SDS011;23316;50.718;7.328;2023-04-06T13:09:48;17.33;;;8.25;;
37455;SDS011;23316;50.718;7.328;2023-04-06T13:12:16;13.80;;;7.35;;
37455;SDS011;23316;50.718;7.328;2023-04-06T13:14:43;15.38;;;7.72;;
37455;SDS011;23316;50.718;7.328;2023-04-06T13:17:12;18.38;;;8.35;;
37455;SDS011;23316;50.718;7.328;2023-04-06T13:19:40;17.38;;;7.30;;
37455;SDS011;23316;50.718;7.328;2023-04-06T13:22:07;12.68;;;6.50;;
37455;SDS011;23316;50.718;7.328;2023-04-06T13:24:34;17.92;;;7.20;;
37455;SDS011;23316;50.718;7.328;2023-04-06T13:27:03;13.93;;;6.53;;
37455;SDS011;23316;50.718;7.328;2023-04-06T13:29:31;13.35;;;6.40;;
37455;SDS011;23316;50.718;7.328;2023-04-06T13:31:59;12.10;;;6.38;;
37455;SDS011;23316;50.718;7.328;2023-04-06T13:34:26;10.02;;;6.30;;
37455;SDS011;23316;50.718;7.328;2023-04-06T13:36:54;12.43;;;6.15;;
37455;SDS011;23316;50.718;7.328;2023-04-06T13:39:21;12.40;;;6.68;;
37455;SDS011;23316;50.718;7.328;2023-04-06T13:41:48;12.85;;;7.40;;
37455;SDS011;23316;50.718;7.328;2023-04-06T13:44:17;16.42;;;7.30;;
37455;SDS011;23316;50.718;7.328;2023-04-06T13:46:44;11.57;;;6.35;;
37455;SDS011;23316;50.718;7.328;2023-04-06T13:49:11;13.32;;;6.60;;
37455;SDS011;23316;50.718;7.328;2023-04-06T13:51:38;12.60;;;6.60;;
37455;SDS011;23316;50.718;7.328;2023-04-06T13:54:06;15.10;;;6.75;;
37455;SDS011;23316;50.718;7.328;2023-04-06T13:56:34;14.60;;;6.95;;
37455;SDS011;23316;50.718;7.328;2023-04-06T13:59:02;14.30;;;6.55;;
37455;SDS011;23316;50.718;7.328;2023-04-06T14:01:31;15.70;;;6.40;;
37455;SDS011;23316;50.718;7.328;2023-04-06T14:03:58;7.90;;;5.10;;
37455;SDS011;23316;50.718;7.328;2023-04-06T14:06:25;15.10;;;8.40;;
37455;SDS011;23316;50.718;7.328;2023-04-06T14:08:52;11.90;;;6.07;;
37455;SDS011;23316;50.718;7.328;2023-04-06T14:11:20;10.77;;;5.15;;
37455;SDS011;23316;50.718;7.328;2023-04-06T14:13:47;6.47;;;4.07;;
37455;SDS011;23316;50.718;7.328;2023-04-06T14:16:14;13.27;;;4.50;;
37455;SDS011;23316;50.718;7.328;2023-04-06T14:18:46;6.70;;;3.97;;
37455;SDS011;23316;50.718;7.328;2023-04-06T14:21:13;7.97;;;3.85;;
37455;SDS011;23316;50.718;7.328;2023-04-06T14:23:40;7.03;;;4.40;;
37455;SDS011;23316;50.718;7.328;2023-04-06T14:26:08;7.68;;;4.30;;
37455;SDS011;23316;50.718;7.328;2023-04-06T14:28:35;8.40;;;4.50;;
37455;SDS011;23316;50.718;7.328;2023-04-06T14:31:09;13.77;;;5.72;;
37455;SDS011;23316;50.718;7.328;2023-04-06T14:33:38;8.23;;;4.95;;
37455;SDS011;23316;50.718;7.328;2023-04-06T14:36:07;7.60;;;4.00;;
37455;SDS011;23316;50.718;7.328;2023-04-06T14:38:35;9.82;;;4.20;;
37455;SDS011;23316;50.718;7.328;2023-04-06T14:41:02;7.78;;;4.60;;